sensor_id;sensor_type;location;lat;lon;timestamp;P1;durP1;ratioP1;P2;durP2;ratioP2
31584;SDS011;18191;51.288;12.390;2023-11-21T00:01:43;1.97;;;0.93;;
31584;SDS011;18191;51.288;12.390;2023-11-21T00:06:34;4.47;;;1.87;;
31584;SDS011;18191;51.288;12.390;2023-11-21T00:11:24;9.70;;;1.60;;
31584;SDS011;18191;51.288;12.390;2023-11-21T00:16:15;4.80;;;1.20;;
31584;SDS011;18191;51.288;12.390;2023-11-21T00:21:05;1.27;;;0.70;;
31584;SDS011;18191;51.288;12.390;2023-11-21T00:25:56;4.37;;;1.10;;
31584;SDS011;18191;51.288;12.390;2023-11-21T00:30:46;1.40;;;1.00;;
31584;SDS011;18191;51.288;12.390;2023-11-21T00:35:37;3.63;;;1.20;;
31584;SDS011;18191;51.288;12.390;2023-11-21T00:40:27;6.10;;;1.17;;
31584;SDS011;18191;51.288;12.390;2023-11-21T00:45:17;4.63;;;1.80;;
31584;SDS011;18191;51.288;12.390;2023-11-21T00:50:08;9.93;;;2.00;;
31584;SDS011;18191;51.288;12.390;2023-11-21T00:59:50;5.50;;;1.53;;
31584;SDS011;18191;51.288;12.390;2023-11-21T01:04:40;9.47;;;2.13;;
31584;SDS011;18191;51.288;12.390;2023-11-21T01:09:30;7.97;;;2.10;;
31584;SDS011;18191;51.288;12.390;2023-11-21T01:14:21;16.43;;;2.40;;
31584;SDS011;18191;51.288;12.390;2023-11-21T01:19:11;9.70;;;2.17;;
31584;SDS011;18191;51.288;12.390;2023-11-21T01:24:01;9.05;;;2.08;;
31584;SDS011;18191;51.288;12.390;2023-11-21T01:28:52;4.30;;;1.92;;
31584;SDS011;18191;51.288;12.390;2023-11-21T01:33:43;3.93;;;1.60;;
31584;SDS011;18191;51.288;12.390;2023-11-21T01:38:33;5.88;;;1.55;;
31584;SDS011;18191;51.288;12.390;2023-11-21T01:43:24;4.60;;;1.60;;
31584;SDS011;18191;51.288;12.390;2023-11-21T01:48:15;2.35;;;1.15;;
31584;SDS011;18191;51.288;12.390;2023-11-21T01:53:06;5.75;;;1.20;;
31584;SDS011;18191;51.288;12.390;2023-11-21T01:57:56;6.77;;;1.50;;
31584;SDS011;18191;51.288;12.390;2023-11-21T02:02:48;4.10;;;1.90;;
31584;SDS011;18191;51.288;12.390;2023-11-21T02:07:39;2.80;;;1.13;;
31584;SDS011;18191;51.288;12.390;2023-11-21T02:12:30;3.63;;;1.30;;
31584;SDS011;18191;51.288;12.390;2023-11-21T02:17:20;3.53;;;1.20;;
31584;SDS011;18191;51.288;12.390;2023-11-21T02:22:10;5.70;;;1.90;;
31584;SDS011;18191;51.288;12.390;2023-11-21T02:31:52;13.90;;;1.23;;
31584;SDS011;18191;51.288;12.390;2023-11-21T02:36:44;5.05;;;1.23;;
31584;SDS011;18191;51.288;12.390;2023-11-21T02:41:35;3.87;;;1.63;;
31584;SDS011;18191;51.288;12.390;2023-11-21T02:46:25;3.97;;;2.07;;
31584;SDS011;18191;51.288;12.390;2023-11-21T02:51:15;9.90;;;1.80;;
31584;SDS011;18191;51.288;12.390;2023-11-21T02:56:05;12.32;;;2.33;;
31584;SDS011;18191;51.288;12.390;2023-11-21T03:00:56;2.13;;;1.50;;
31584;SDS011;18191;51.288;12.390;2023-11-21T03:05:46;14.20;;;2.58;;
31584;SDS011;18191;51.288;12.390;2023-11-21T03:10:37;13.63;;;2.60;;
31584;SDS011;18191;51.288;12.390;2023-11-21T03:15:27;7.67;;;2.67;;
31584;SDS011;18191;51.288;12.390;2023-11-21T03:20:17;6.50;;;2.42;;
31584;SDS011;18191;51.288;12.390;2023-11-21T03:25:08;9.53;;;2.10;;
31584;SDS011;18191;51.288;12.390;2023-11-21T03:30:01;8.98;;;2.40;;
31584;SDS011;18191;51.288;12.390;2023-11-21T03:34:54;4.93;;;1.92;;
31584;SDS011;18191;51.288;12.390;2023-11-21T03:39:46;6.90;;;2.00;;
31584;SDS011;18191;51.288;12.390;2023-11-21T03:44:37;8.02;;;1.98;;
31584;SDS011;18191;51.288;12.390;2023-11-21T03:49:27;4.53;;;2.27;;
31584;SDS011;18191;51.288;12.390;2023-11-21T03:54:19;7.35;;;1.80;;
31584;SDS011;18191;51.288;12.390;2023-11-21T03:59:09;5.85;;;2.35;;
31584;SDS011;18191;51.288;12.390;2023-11-21T04:03:59;4.30;;;1.83;;
31584;SDS011;18191;51.288;12.390;2023-11-21T04:08:50;7.40;;;2.17;;
31584;SDS011;18191;51.288;12.390;2023-11-21T04:13:40;6.85;;;2.17;;
31584;SDS011;18191;51.288;12.390;2023-11-21T04:18:32;6.95;;;2.35;;
31584;SDS011;18191;51.288;12.390;2023-11-21T04:23:27;10.73;;;2.95;;
31584;SDS011;18191;51.288;12.390;2023-11-21T04:28:18;12.32;;;2.75;;
31584;SDS011;18191;51.288;12.390;2023-11-21T04:33:09;20.80;;;2.53;;
31584;SDS011;18191;51.288;12.390;2023-11-21T04:37:59;5.38;;;2.22;;
31584;SDS011;18191;51.288;12.390;2023-11-21T04:42:50;13.57;;;3.33;;
31584;SDS011;18191;51.288;12.390;2023-11-21T04:47:40;8.93;;;2.65;;
31584;SDS011;18191;51.288;12.390;2023-11-21T04:52:30;9.30;;;1.73;;
31584;SDS011;18191;51.288;12.390;2023-11-21T04:57:21;9.65;;;2.80;;
31584;SDS011;18191;51.288;12.390;2023-11-21T05:02:11;5.85;;;2.72;;
31584;SDS011;18191;51.288;12.390;2023-11-21T05:07:02;17.67;;;3.03;;
31584;SDS011;18191;51.288;12.390;2023-11-21T05:11:52;10.57;;;3.43;;
31584;SDS011;18191;51.288;12.390;2023-11-21T05:16:44;17.10;;;3.53;;
31584;SDS011;18191;51.288;12.390;2023-11-21T05:21:34;17.60;;;3.67;;
31584;SDS011;18191;51.288;12.390;2023-11-21T05:31:16;15.70;;;3.97;;
31584;SDS011;18191;51.288;12.390;2023-11-21T05:36:06;15.50;;;4.05;;
31584;SDS011;18191;51.288;12.390;2023-11-21T05:45:48;8.97;;;3.80;;
31584;SDS011;18191;51.288;12.390;2023-11-21T05:50:39;11.33;;;3.17;;
31584;SDS011;18191;51.288;12.390;2023-11-21T05:55:29;15.48;;;4.18;;
31584;SDS011;18191;51.288;12.390;2023-11-21T06:00:19;16.98;;;4.57;;
31584;SDS011;18191;51.288;12.390;2023-11-21T06:05:12;17.73;;;4.63;;
31584;SDS011;18191;51.288;12.390;2023-11-21T06:10:03;12.43;;;4.20;;
31584;SDS011;18191;51.288;12.390;2023-11-21T06:15:02;11.48;;;3.95;;
31584;SDS011;18191;51.288;12.390;2023-11-21T06:19:55;9.55;;;4.00;;
31584;SDS011;18191;51.288;12.390;2023-11-21T06:24:45;16.37;;;4.07;;
31584;SDS011;18191;51.288;12.390;2023-11-21T06:29:35;11.57;;;4.45;;
31584;SDS011;18191;51.288;12.390;2023-11-21T06:34:27;14.43;;;4.47;;
31584;SDS011;18191;51.288;12.390;2023-11-21T06:39:17;10.65;;;4.45;;
31584;SDS011;18191;51.288;12.390;2023-11-21T06:44:08;10.80;;;4.07;;
31584;SDS011;18191;51.288;12.390;2023-11-21T06:48:58;14.07;;;4.20;;
31584;SDS011;18191;51.288;12.390;2023-11-21T06:53:49;15.93;;;5.13;;
31584;SDS011;18191;51.288;12.390;2023-11-21T06:58:39;22.13;;;4.87;;
31584;SDS011;18191;51.288;12.390;2023-11-21T07:03:30;12.02;;;5.15;;
31584;SDS011;18191;51.288;12.390;2023-11-21T07:08:20;19.50;;;5.68;;
31584;SDS011;18191;51.288;12.390;2023-11-21T07:13:11;18.20;;;5.15;;
31584;SDS011;18191;51.288;12.390;2023-11-21T07:18:02;22.15;;;4.90;;
31584;SDS011;18191;51.288;12.390;2023-11-21T07:22:52;20.67;;;5.40;;
31584;SDS011;18191;51.288;12.390;2023-11-21T07:27:43;20.64;;;6.20;;
31584;SDS011;18191;51.288;12.390;2023-11-21T07:32:34;13.32;;;5.72;;
31584;SDS011;18191;51.288;12.390;2023-11-21T07:37:24;13.50;;;5.65;;
31584;SDS011;18191;51.288;12.390;2023-11-21T07:42:18;19.55;;;5.25;;
31584;SDS011;18191;51.288;12.390;2023-11-21T07:47:09;18.98;;;7.28;;
31584;SDS011;18191;51.288;12.390;2023-11-21T07:51:59;25.48;;;9.02;;
31584;SDS011;18191;51.288;12.390;2023-11-21T07:56:51;25.83;;;10.35;;
31584;SDS011;18191;51.288;12.390;2023-11-21T08:01:41;36.83;;;11.27;;
31584;SDS011;18191;51.288;12.390;2023-11-21T08:06:33;42.55;;;12.05;;
31584;SDS011;18191;51.288;12.390;2023-11-21T08:11:23;33.00;;;12.33;;
31584;SDS011;18191;51.288;12.390;2023-11-21T08:16:14;39.67;;;13.13;;
31584;SDS011;18191;51.288;12.390;2023-11-21T08:21:04;45.10;;;11.90;;
31584;SDS011;18191;51.288;12.390;2023-11-21T08:25:55;36.33;;;10.50;;
31584;SDS011;18191;51.288;12.390;2023-11-21T08:30:45;31.63;;;10.05;;
31584;SDS011;18191;51.288;12.390;2023-11-21T08:35:37;30.98;;;11.38;;
31584;SDS011;18191;51.288;12.390;2023-11-21T08:40:27;29.20;;;10.20;;
31584;SDS011;18191;51.288;12.390;2023-11-21T08:45:18;16.87;;;7.93;;
31584;SDS011;18191;51.288;12.390;2023-11-21T08:50:09;20.92;;;8.07;;
31584;SDS011;18191;51.288;12.390;2023-11-21T08:55:02;22.63;;;8.07;;
31584;SDS011;18191;51.288;12.390;2023-11-21T08:59:57;23.58;;;9.00;;
31584;SDS011;18191;51.288;12.390;2023-11-21T09:04:48;20.38;;;8.77;;
31584;SDS011;18191;51.288;12.390;2023-11-21T09:09:38;19.93;;;7.73;;
31584;SDS011;18191;51.288;12.390;2023-11-21T09:14:28;21.53;;;8.23;;
31584;SDS011;18191;51.288;12.390;2023-11-21T09:19:18;23.63;;;9.10;;
31584;SDS011;18191;51.288;12.390;2023-11-21T09:24:09;31.40;;;10.00;;
31584;SDS011;18191;51.288;12.390;2023-11-21T09:28:59;23.57;;;8.40;;
31584;SDS011;18191;51.288;12.390;2023-11-21T09:33:50;21.80;;;8.30;;
31584;SDS011;18191;51.288;12.390;2023-11-21T09:38:40;21.70;;;9.48;;
31584;SDS011;18191;51.288;12.390;2023-11-21T09:43:31;17.42;;;6.68;;
31584;SDS011;18191;51.288;12.390;2023-11-21T09:48:24;19.95;;;8.13;;
31584;SDS011;18191;51.288;12.390;2023-11-21T09:58:14;22.15;;;8.57;;
31584;SDS011;18191;51.288;12.390;2023-11-21T10:03:05;22.20;;;7.67;;
31584;SDS011;18191;51.288;12.390;2023-11-21T10:07:56;15.74;;;6.64;;
31584;SDS011;18191;51.288;12.390;2023-11-21T10:12:50;14.95;;;5.90;;
31584;SDS011;18191;51.288;12.390;2023-11-21T10:17:43;16.33;;;7.07;;
31584;SDS011;18191;51.288;12.390;2023-11-21T10:22:36;20.90;;;9.07;;
31584;SDS011;18191;51.288;12.390;2023-11-21T10:27:26;14.50;;;5.93;;
31584;SDS011;18191;51.288;12.390;2023-11-21T10:32:17;22.20;;;7.10;;
31584;SDS011;18191;51.288;12.390;2023-11-21T10:37:13;9.50;;;4.28;;
31584;SDS011;18191;51.288;12.390;2023-11-21T10:42:07;7.60;;;3.97;;
31584;SDS011;18191;51.288;12.390;2023-11-21T10:46:59;12.07;;;5.28;;
31584;SDS011;18191;51.288;12.390;2023-11-21T10:51:51;12.77;;;4.78;;
31584;SDS011;18191;51.288;12.390;2023-11-21T10:56:43;15.43;;;5.70;;
31584;SDS011;18191;51.288;12.390;2023-11-21T11:06:24;15.38;;;5.10;;
31584;SDS011;18191;51.288;12.390;2023-11-21T11:11:18;13.18;;;5.43;;
31584;SDS011;18191;51.288;12.390;2023-11-21T11:16:08;35.63;;;9.20;;
31584;SDS011;18191;51.288;12.390;2023-11-21T11:21:02;34.60;;;11.40;;
31584;SDS011;18191;51.288;12.390;2023-11-21T11:31:08;75.85;;;19.60;;
31584;SDS011;18191;51.288;12.390;2023-11-21T11:36:20;25.92;;;8.77;;
31584;SDS011;18191;51.288;12.390;2023-11-21T11:41:24;22.85;;;7.72;;
31584;SDS011;18191;51.288;12.390;2023-11-21T11:46:15;24.10;;;8.13;;
31584;SDS011;18191;51.288;12.390;2023-11-21T11:51:06;20.47;;;6.47;;
31584;SDS011;18191;51.288;12.390;2023-11-21T12:01:26;25.15;;;9.30;;
31584;SDS011;18191;51.288;12.390;2023-11-21T12:06:16;26.45;;;10.43;;
31584;SDS011;18191;51.288;12.390;2023-11-21T12:11:14;26.85;;;10.40;;
31584;SDS011;18191;51.288;12.390;2023-11-21T12:16:05;25.67;;;10.65;;
31584;SDS011;18191;51.288;12.390;2023-11-21T12:20:56;29.05;;;9.43;;
31584;SDS011;18191;51.288;12.390;2023-11-21T12:25:46;22.90;;;8.03;;
31584;SDS011;18191;51.288;12.390;2023-11-21T12:30:36;14.20;;;5.63;;
31584;SDS011;18191;51.288;12.390;2023-11-21T12:35:28;21.33;;;5.75;;
31584;SDS011;18191;51.288;12.390;2023-11-21T12:40:20;12.32;;;5.20;;
31584;SDS011;18191;51.288;12.390;2023-11-21T12:50:06;9.55;;;3.28;;
31584;SDS011;18191;51.288;12.390;2023-11-21T12:54:56;14.57;;;5.60;;
31584;SDS011;18191;51.288;12.390;2023-11-21T12:59:46;10.03;;;4.47;;
31584;SDS011;18191;51.288;12.390;2023-11-21T13:04:37;13.93;;;6.33;;
31584;SDS011;18191;51.288;12.390;2023-11-21T13:09:29;19.08;;;7.60;;
31584;SDS011;18191;51.288;12.390;2023-11-21T13:14:19;29.27;;;8.40;;
31584;SDS011;18191;51.288;12.390;2023-11-21T13:19:09;34.63;;;9.87;;
31584;SDS011;18191;51.288;12.390;2023-11-21T13:24:00;31.67;;;9.80;;
31584;SDS011;18191;51.288;12.390;2023-11-21T13:28:50;21.90;;;7.78;;
31584;SDS011;18191;51.288;12.390;2023-11-21T13:33:40;23.03;;;8.87;;
31584;SDS011;18191;51.288;12.390;2023-11-21T13:38:32;31.30;;;10.40;;
31584;SDS011;18191;51.288;12.390;2023-11-21T13:43:25;22.48;;;7.50;;
31584;SDS011;18191;51.288;12.390;2023-11-21T13:48:18;32.67;;;9.20;;
31584;SDS011;18191;51.288;12.390;2023-11-21T13:53:18;26.00;;;8.10;;
31584;SDS011;18191;51.288;12.390;2023-11-21T13:58:12;20.92;;;8.05;;
31584;SDS011;18191;51.288;12.390;2023-11-21T14:03:08;23.33;;;8.02;;
31584;SDS011;18191;51.288;12.390;2023-11-21T14:08:06;21.63;;;7.28;;
31584;SDS011;18191;51.288;12.390;2023-11-21T14:12:56;17.50;;;6.93;;
31584;SDS011;18191;51.288;12.390;2023-11-21T14:17:47;22.60;;;7.88;;
31584;SDS011;18191;51.288;12.390;2023-11-21T14:22:37;17.77;;;7.07;;
31584;SDS011;18191;51.288;12.390;2023-11-21T14:27:28;16.80;;;6.13;;
31584;SDS011;18191;51.288;12.390;2023-11-21T14:32:19;14.07;;;5.00;;
31584;SDS011;18191;51.288;12.390;2023-11-21T14:37:09;16.27;;;5.63;;
31584;SDS011;18191;51.288;12.390;2023-11-21T14:42:03;12.55;;;4.45;;
31584;SDS011;18191;51.288;12.390;2023-11-21T14:46:54;13.90;;;4.30;;
31584;SDS011;18191;51.288;12.390;2023-11-21T14:51:46;11.82;;;4.22;;
31584;SDS011;18191;51.288;12.390;2023-11-21T14:56:50;10.35;;;3.53;;
31584;SDS011;18191;51.288;12.390;2023-11-21T15:01:40;12.03;;;4.27;;
31584;SDS011;18191;51.288;12.390;2023-11-21T15:06:44;11.25;;;3.53;;
31584;SDS011;18191;51.288;12.390;2023-11-21T15:11:37;8.65;;;4.10;;
31584;SDS011;18191;51.288;12.390;2023-11-21T15:16:28;8.48;;;3.67;;
31584;SDS011;18191;51.288;12.390;2023-11-21T15:21:19;7.05;;;3.88;;
31584;SDS011;18191;51.288;12.390;2023-11-21T15:26:11;11.63;;;4.90;;
31584;SDS011;18191;51.288;12.390;2023-11-21T15:31:01;10.93;;;3.37;;
31584;SDS011;18191;51.288;12.390;2023-11-21T15:35:54;9.82;;;4.15;;
31584;SDS011;18191;51.288;12.390;2023-11-21T15:40:44;7.80;;;2.72;;
31584;SDS011;18191;51.288;12.390;2023-11-21T15:45:35;17.17;;;4.22;;
31584;SDS011;18191;51.288;12.390;2023-11-21T15:50:25;10.02;;;3.65;;
31584;SDS011;18191;51.288;12.390;2023-11-21T15:55:16;6.53;;;2.87;;
31584;SDS011;18191;51.288;12.390;2023-11-21T16:00:07;7.25;;;3.50;;
31584;SDS011;18191;51.288;12.390;2023-11-21T16:05:06;6.32;;;2.97;;
31584;SDS011;18191;51.288;12.390;2023-11-21T16:09:57;8.88;;;3.40;;
31584;SDS011;18191;51.288;12.390;2023-11-21T16:14:47;6.63;;;3.17;;
31584;SDS011;18191;51.288;12.390;2023-11-21T16:19:38;4.37;;;2.73;;
31584;SDS011;18191;51.288;12.390;2023-11-21T16:24:28;14.68;;;5.50;;
31584;SDS011;18191;51.288;12.390;2023-11-21T16:29:20;12.50;;;4.10;;
31584;SDS011;18191;51.288;12.390;2023-11-21T16:34:28;8.52;;;3.95;;
31584;SDS011;18191;51.288;12.390;2023-11-21T16:39:19;8.15;;;3.58;;
31584;SDS011;18191;51.288;12.390;2023-11-21T16:44:13;10.18;;;3.15;;
31584;SDS011;18191;51.288;12.390;2023-11-21T16:49:13;7.28;;;3.20;;
31584;SDS011;18191;51.288;12.390;2023-11-21T16:54:03;10.02;;;3.47;;
31584;SDS011;18191;51.288;12.390;2023-11-21T16:58:54;8.03;;;3.30;;
31584;SDS011;18191;51.288;12.390;2023-11-21T17:03:44;6.50;;;3.20;;
31584;SDS011;18191;51.288;12.390;2023-11-21T17:08:34;7.08;;;3.00;;
31584;SDS011;18191;51.288;12.390;2023-11-21T17:13:24;6.77;;;3.03;;
31584;SDS011;18191;51.288;12.390;2023-11-21T17:18:15;8.83;;;3.17;;
31584;SDS011;18191;51.288;12.390;2023-11-21T17:23:06;10.00;;;3.80;;
31584;SDS011;18191;51.288;12.390;2023-11-21T17:27:58;9.50;;;3.80;;
31584;SDS011;18191;51.288;12.390;2023-11-21T17:32:48;7.90;;;3.70;;
31584;SDS011;18191;51.288;12.390;2023-11-21T17:37:39;8.03;;;3.43;;
31584;SDS011;18191;51.288;12.390;2023-11-21T17:42:29;7.30;;;3.33;;
31584;SDS011;18191;51.288;12.390;2023-11-21T17:47:20;10.55;;;3.25;;
31584;SDS011;18191;51.288;12.390;2023-11-21T17:52:15;7.07;;;2.97;;
31584;SDS011;18191;51.288;12.390;2023-11-21T17:57:05;9.23;;;3.30;;
31584;SDS011;18191;51.288;12.390;2023-11-21T18:01:55;10.13;;;4.07;;
31584;SDS011;18191;51.288;12.390;2023-11-21T18:06:46;10.57;;;5.20;;
31584;SDS011;18191;51.288;12.390;2023-11-21T18:11:36;13.73;;;5.13;;
31584;SDS011;18191;51.288;12.390;2023-11-21T18:16:26;17.76;;;5.86;;
31584;SDS011;18191;51.288;12.390;2023-11-21T18:21:17;15.30;;;5.82;;
31584;SDS011;18191;51.288;12.390;2023-11-21T18:26:07;20.10;;;6.07;;
31584;SDS011;18191;51.288;12.390;2023-11-21T18:30:57;17.16;;;6.30;;
31584;SDS011;18191;51.288;12.390;2023-11-21T18:35:48;17.35;;;6.20;;
31584;SDS011;18191;51.288;12.390;2023-11-21T18:40:38;19.77;;;6.90;;
31584;SDS011;18191;51.288;12.390;2023-11-21T18:45:29;13.23;;;6.30;;
31584;SDS011;18191;51.288;12.390;2023-11-21T18:50:19;22.15;;;7.75;;
31584;SDS011;18191;51.288;12.390;2023-11-21T19:00:01;17.27;;;7.40;;
31584;SDS011;18191;51.288;12.390;2023-11-21T19:04:51;19.27;;;8.00;;
31584;SDS011;18191;51.288;12.390;2023-11-21T19:09:41;23.02;;;7.08;;
31584;SDS011;18191;51.288;12.390;2023-11-21T19:14:32;16.03;;;6.27;;
31584;SDS011;18191;51.288;12.390;2023-11-21T19:19:22;21.06;;;6.56;;
31584;SDS011;18191;51.288;12.390;2023-11-21T19:24:13;17.40;;;7.13;;
31584;SDS011;18191;51.288;12.390;2023-11-21T19:29:03;16.53;;;6.93;;
31584;SDS011;18191;51.288;12.390;2023-11-21T19:33:55;19.17;;;7.18;;
31584;SDS011;18191;51.288;12.390;2023-11-21T19:38:45;24.38;;;8.00;;
31584;SDS011;18191;51.288;12.390;2023-11-21T19:43:35;34.43;;;9.90;;
31584;SDS011;18191;51.288;12.390;2023-11-21T19:48:26;21.90;;;6.87;;
31584;SDS011;18191;51.288;12.390;2023-11-21T19:53:16;33.92;;;10.28;;
31584;SDS011;18191;51.288;12.390;2023-11-21T19:58:06;35.33;;;10.47;;
31584;SDS011;18191;51.288;12.390;2023-11-21T20:02:57;39.90;;;12.50;;
31584;SDS011;18191;51.288;12.390;2023-11-21T20:07:47;28.90;;;11.73;;
31584;SDS011;18191;51.288;12.390;2023-11-21T20:12:37;34.13;;;11.63;;
31584;SDS011;18191;51.288;12.390;2023-11-21T20:17:28;42.13;;;14.10;;
31584;SDS011;18191;51.288;12.390;2023-11-21T20:22:18;33.55;;;9.93;;
31584;SDS011;18191;51.288;12.390;2023-11-21T20:27:08;29.93;;;12.30;;
31584;SDS011;18191;51.288;12.390;2023-11-21T20:31:59;32.27;;;10.93;;
31584;SDS011;18191;51.288;12.390;2023-11-21T20:36:50;28.87;;;11.33;;
31584;SDS011;18191;51.288;12.390;2023-11-21T20:41:41;33.60;;;12.20;;
31584;SDS011;18191;51.288;12.390;2023-11-21T20:46:31;31.07;;;11.33;;
31584;SDS011;18191;51.288;12.390;2023-11-21T20:51:22;37.97;;;10.82;;
31584;SDS011;18191;51.288;12.390;2023-11-21T20:56:12;20.60;;;8.53;;
31584;SDS011;18191;51.288;12.390;2023-11-21T21:01:02;30.90;;;10.48;;
31584;SDS011;18191;51.288;12.390;2023-11-21T21:05:53;26.47;;;9.20;;
31584;SDS011;18191;51.288;12.390;2023-11-21T21:10:43;23.23;;;11.00;;
31584;SDS011;18191;51.288;12.390;2023-11-21T21:15:33;24.25;;;10.13;;
31584;SDS011;18191;51.288;12.390;2023-11-21T21:20:24;24.05;;;9.90;;
31584;SDS011;18191;51.288;12.390;2023-11-21T21:25:15;30.07;;;11.53;;
31584;SDS011;18191;51.288;12.390;2023-11-21T21:30:06;37.72;;;12.05;;
31584;SDS011;18191;51.288;12.390;2023-11-21T21:34:57;32.65;;;11.65;;
31584;SDS011;18191;51.288;12.390;2023-11-21T21:39:47;33.50;;;12.23;;
31584;SDS011;18191;51.288;12.390;2023-11-21T21:44:37;31.97;;;12.33;;
31584;SDS011;18191;51.288;12.390;2023-11-21T21:49:29;29.10;;;11.90;;
31584;SDS011;18191;51.288;12.390;2023-11-21T21:54:19;29.77;;;10.00;;
31584;SDS011;18191;51.288;12.390;2023-11-21T21:59:10;23.23;;;8.90;;
31584;SDS011;18191;51.288;12.390;2023-11-21T22:04:02;23.37;;;9.87;;
31584;SDS011;18191;51.288;12.390;2023-11-21T22:13:43;23.53;;;7.60;;
31584;SDS011;18191;51.288;12.390;2023-11-21T22:18:34;26.30;;;9.07;;
31584;SDS011;18191;51.288;12.390;2023-11-21T22:23:24;26.00;;;8.70;;
31584;SDS011;18191;51.288;12.390;2023-11-21T22:28:14;25.67;;;8.97;;
31584;SDS011;18191;51.288;12.390;2023-11-21T22:33:04;24.90;;;8.50;;
31584;SDS011;18191;51.288;12.390;2023-11-21T22:37:55;26.80;;;8.80;;
31584;SDS011;18191;51.288;12.390;2023-11-21T22:42:46;19.95;;;7.00;;
31584;SDS011;18191;51.288;12.390;2023-11-21T22:47:36;32.97;;;9.40;;
31584;SDS011;18191;51.288;12.390;2023-11-21T22:52:26;26.13;;;8.53;;
31584;SDS011;18191;51.288;12.390;2023-11-21T22:57:17;25.70;;;7.37;;
31584;SDS011;18191;51.288;12.390;2023-11-21T23:02:08;30.15;;;8.80;;
31584;SDS011;18191;51.288;12.390;2023-11-21T23:06:58;27.35;;;8.77;;
31584;SDS011;18191;51.288;12.390;2023-11-21T23:11:48;24.50;;;8.02;;
31584;SDS011;18191;51.288;12.390;2023-11-21T23:16:39;36.27;;;8.93;;
31584;SDS011;18191;51.288;12.390;2023-11-21T23:21:29;22.43;;;6.93;;
31584;SDS011;18191;51.288;12.390;2023-11-21T23:26:19;16.77;;;6.93;;
31584;SDS011;18191;51.288;12.390;2023-11-21T23:31:10;18.40;;;6.17;;
31584;SDS011;18191;51.288;12.390;2023-11-21T23:36:00;20.23;;;6.33;;
31584;SDS011;18191;51.288;12.390;2023-11-21T23:40:50;20.02;;;6.57;;
31584;SDS011;18191;51.288;12.390;2023-11-21T23:45:41;16.10;;;5.93;;
31584;SDS011;18191;51.288;12.390;2023-11-21T23:50:32;21.70;;;5.80;;
31584;SDS011;18191;51.288;12.390;2023-11-21T23:55:22;14.60;;;5.73;;
